createdAt,value
2019-02-21T00:02:16.061Z,0.90
2019-02-21T00:04:42.968Z,0.90
2019-02-21T00:07:09.993Z,0.90
2019-02-21T00:09:37.007Z,0.90
2019-02-21T00:12:04.233Z,0.80
2019-02-21T00:14:31.149Z,0.80
2019-02-21T00:16:58.146Z,0.80
2019-02-21T00:19:25.185Z,0.80
2019-02-21T00:21:51.995Z,0.80
2019-02-21T00:24:18.813Z,0.70
2019-02-21T00:26:45.718Z,0.70
2019-02-21T00:29:12.625Z,0.80
2019-02-21T00:31:40.185Z,0.90
2019-02-21T00:34:07.350Z,1.00
2019-02-21T00:36:34.268Z,1.00
2019-02-21T00:39:01.134Z,0.90
2019-02-21T00:41:28.034Z,0.90
2019-02-21T00:43:54.851Z,0.80
2019-02-21T00:46:21.765Z,0.70
2019-02-21T00:48:48.574Z,0.70
2019-02-21T00:51:15.395Z,0.60
2019-02-21T00:53:43.113Z,0.60
2019-02-21T00:56:10.125Z,0.60
2019-02-21T00:58:36.962Z,0.60
2019-02-21T01:01:04.033Z,0.50
2019-02-21T01:03:31.032Z,0.50
2019-02-21T01:05:57.945Z,0.50
2019-02-21T01:08:24.957Z,0.40
2019-02-21T01:10:51.941Z,0.40
2019-02-21T01:13:18.850Z,0.30
2019-02-21T01:15:45.804Z,0.30
2019-02-21T01:18:12.902Z,0.20
2019-02-21T01:20:39.922Z,0.10
2019-02-21T01:23:06.829Z,0.10
2019-02-21T01:25:33.760Z,0.10
2019-02-21T01:28:00.826Z,0.00
2019-02-21T01:30:27.753Z,0.00
2019-02-21T01:32:54.701Z,0.00
2019-02-21T01:35:21.727Z,0.00
2019-02-21T01:37:48.641Z,0.00
2019-02-21T01:40:15.492Z,0.00
2019-02-21T01:42:42.584Z,0.00
2019-02-21T01:45:09.509Z,0.00
2019-02-21T01:47:36.313Z,0.00
2019-02-21T01:50:03.646Z,0.00
2019-02-21T01:52:30.554Z,0.00
2019-02-21T01:54:57.371Z,0.00
2019-02-21T01:57:24.335Z,0.00
2019-02-21T01:59:51.329Z,0.10
2019-02-21T02:02:18.339Z,0.20
2019-02-21T02:04:45.249Z,0.20
2019-02-21T02:07:12.158Z,0.20
2019-02-21T02:09:38.959Z,0.10
2019-02-21T02:12:05.990Z,0.10
2019-02-21T02:14:33.034Z,0.10
2019-02-21T02:16:59.951Z,0.00
2019-02-21T02:19:26.854Z,0.00
2019-02-21T02:21:53.760Z,0.00
2019-02-21T02:24:20.646Z,-0.10
2019-02-21T02:26:47.507Z,-0.10
2019-02-21T02:29:14.565Z,-0.10
2019-02-21T02:31:41.680Z,-0.10
2019-02-21T02:34:08.575Z,-0.10
2019-02-21T02:36:35.365Z,-0.10
2019-02-21T02:39:02.349Z,-0.10
2019-02-21T02:41:29.199Z,-0.10
2019-02-21T02:43:56.146Z,-0.10
2019-02-21T02:46:22.956Z,-0.10
2019-02-21T02:48:49.934Z,-0.10
2019-02-21T02:51:16.869Z,-0.10
2019-02-21T02:53:44.179Z,-0.10
2019-02-21T02:56:11.092Z,-0.10
2019-02-21T02:58:37.875Z,-0.10
2019-02-21T03:01:04.747Z,-0.10
2019-02-21T03:03:31.534Z,0.00
2019-02-21T03:05:58.427Z,0.00
2019-02-21T03:08:25.303Z,0.10
2019-02-21T03:10:52.217Z,0.10
2019-02-21T03:13:19.099Z,0.10
2019-02-21T03:15:45.984Z,0.00
2019-02-21T03:18:12.767Z,0.00
2019-02-21T03:20:39.662Z,0.00
2019-02-21T03:23:06.448Z,0.00
2019-02-21T03:25:33.266Z,0.00
2019-02-21T03:28:00.139Z,0.10
2019-02-21T03:30:27.105Z,0.10
2019-02-21T03:32:53.920Z,0.20
2019-02-21T03:35:20.897Z,0.30
2019-02-21T03:37:47.810Z,0.30
2019-02-21T03:40:14.893Z,0.30
2019-02-21T03:42:41.788Z,0.30
2019-02-21T03:45:09.390Z,0.30
2019-02-21T03:47:36.202Z,0.30
2019-02-21T03:50:03.385Z,0.30
2019-02-21T03:52:30.304Z,0.30
2019-02-21T03:54:57.372Z,0.20
2019-02-21T03:57:24.364Z,0.20
2019-02-21T03:59:51.469Z,0.20
2019-02-21T04:02:18.455Z,0.20
2019-02-21T04:04:45.441Z,0.20
2019-02-21T04:07:12.409Z,0.20
2019-02-21T04:09:39.210Z,0.20
2019-02-21T04:12:06.126Z,0.20
2019-02-21T04:14:33.317Z,0.20
2019-02-21T04:17:00.209Z,0.20
2019-02-21T04:19:27.190Z,0.20
2019-02-21T04:21:53.986Z,0.30
2019-02-21T04:24:22.468Z,0.30
2019-02-21T04:26:49.397Z,0.30
2019-02-21T04:29:16.454Z,0.40
2019-02-21T04:31:43.336Z,0.50
2019-02-21T04:34:10.226Z,0.50
2019-02-21T04:36:37.018Z,0.50
2019-02-21T04:39:04.388Z,0.60
2019-02-21T04:41:31.252Z,0.60
2019-02-21T04:43:58.059Z,0.60
2019-02-21T04:46:25.037Z,0.50
2019-02-21T04:48:51.824Z,0.40
2019-02-21T04:51:18.689Z,0.40
2019-02-21T04:53:45.487Z,0.20
2019-02-21T04:56:12.265Z,0.10
2019-02-21T04:58:39.146Z,0.00
2019-02-21T05:01:06.111Z,0.00
2019-02-21T05:03:32.918Z,0.00
2019-02-21T05:05:59.792Z,0.10
2019-02-21T05:08:26.660Z,0.10
2019-02-21T05:10:53.466Z,0.10
2019-02-21T05:13:20.359Z,0.20
2019-02-21T05:15:47.225Z,0.20
2019-02-21T05:18:14.021Z,0.30
2019-02-21T05:20:40.813Z,0.40
2019-02-21T05:23:07.593Z,0.40
2019-02-21T05:25:34.373Z,0.40
2019-02-21T05:28:41.208Z,0.40
2019-02-21T05:31:12.917Z,0.40
2019-02-21T05:33:45.246Z,0.30
2019-02-21T05:36:30.724Z,0.30
2019-02-21T05:39:17.291Z,0.20
2019-02-21T05:41:50.032Z,0.20
2019-02-21T05:44:22.614Z,0.30
2019-02-21T05:46:53.933Z,0.30
2019-02-21T05:49:45.981Z,0.30
2019-02-21T05:52:17.508Z,0.30
2019-02-21T05:54:53.081Z,0.30
2019-02-21T05:57:38.248Z,0.30
2019-02-21T06:00:22.310Z,0.40
2019-02-21T06:03:02.063Z,0.40
2019-02-21T06:05:37.265Z,0.40
2019-02-21T06:08:13.652Z,0.30
2019-02-21T06:11:17.882Z,0.30
2019-02-21T06:14:14.404Z,0.30
2019-02-21T06:16:58.760Z,0.20
2019-02-21T06:19:38.703Z,0.20
2019-02-21T06:22:28.194Z,0.20
2019-02-21T06:25:16.133Z,0.30
2019-02-21T06:27:58.526Z,0.40
2019-02-21T06:30:43.686Z,0.40
2019-02-21T06:33:10.666Z,0.40
2019-02-21T06:35:37.658Z,0.40
2019-02-21T06:38:04.566Z,0.50
2019-02-21T06:40:31.572Z,0.50
2019-02-21T06:42:58.342Z,0.60
2019-02-21T06:45:25.234Z,0.70
2019-02-21T06:47:52.018Z,0.80
2019-02-21T06:50:26.418Z,0.90
2019-02-21T06:52:47.494Z,1.10
2019-02-21T06:55:14.352Z,1.20
2019-02-21T06:57:41.191Z,1.40
2019-02-21T07:00:08.301Z,1.70
2019-02-21T07:02:35.073Z,1.80
2019-02-21T07:05:02.005Z,2.00
2019-02-21T07:07:31.569Z,2.10
2019-02-21T07:09:58.449Z,2.00
2019-02-21T07:12:25.229Z,2.10
2019-02-21T07:14:52.109Z,2.40
2019-02-21T07:17:20.311Z,2.80
2019-02-21T07:19:47.135Z,3.20
2019-02-21T07:22:17.660Z,3.70
2019-02-21T07:24:43.909Z,4.20
2019-02-21T07:27:10.703Z,4.40
2019-02-21T07:29:38.807Z,4.50
2019-02-21T07:32:05.890Z,4.40
2019-02-21T07:34:32.770Z,4.50
2019-02-21T07:36:59.559Z,4.50
2019-02-21T07:39:35.729Z,4.40
2019-02-21T07:41:55.820Z,4.50
2019-02-21T07:44:22.726Z,4.50
2019-02-21T07:46:49.513Z,4.60
2019-02-21T07:49:16.318Z,5.00
2019-02-21T07:51:43.115Z,5.40
2019-02-21T07:54:10.100Z,5.70
2019-02-21T07:56:42.116Z,5.60
2019-02-21T07:59:05.688Z,5.50
2019-02-21T08:01:32.577Z,5.30
2019-02-21T08:03:59.477Z,5.10
2019-02-21T08:06:26.286Z,5.00
2019-02-21T08:08:53.171Z,5.20
2019-02-21T08:11:20.077Z,5.80
2019-02-21T08:13:46.948Z,6.40
2019-02-21T08:16:13.933Z,6.80
2019-02-21T08:18:40.855Z,7.40
2019-02-21T08:21:07.897Z,7.80
2019-02-21T08:23:34.796Z,8.00
2019-02-21T08:26:01.583Z,8.10
2019-02-21T08:28:28.451Z,8.30
2019-02-21T08:30:57.943Z,8.60
2019-02-21T08:33:30.737Z,8.50
2019-02-21T08:35:57.962Z,8.30
2019-02-21T08:38:25.000Z,8.00
2019-02-21T08:40:53.320Z,7.60
2019-02-21T08:43:20.594Z,7.40
2019-02-21T08:45:47.459Z,7.40
2019-02-21T08:48:14.341Z,7.80
2019-02-21T08:50:41.222Z,8.20
2019-02-21T08:53:07.993Z,8.80
2019-02-21T08:55:34.773Z,9.50
2019-02-21T08:58:01.558Z,10.10
2019-02-21T09:00:31.313Z,10.50
2019-02-21T09:02:57.506Z,11.20
2019-02-21T09:05:24.578Z,12.10
2019-02-21T09:07:51.555Z,13.00
2019-02-21T09:10:18.551Z,14.00
2019-02-21T09:12:48.200Z,14.20
2019-02-21T09:15:15.101Z,15.10
2019-02-21T09:17:42.009Z,15.90
2019-02-21T09:20:09.276Z,16.10
2019-02-21T09:22:36.270Z,16.90
2019-02-21T09:25:03.605Z,17.30
2019-02-21T09:27:30.506Z,17.90
2019-02-21T09:29:57.297Z,18.40
2019-02-21T09:32:24.195Z,18.70
2019-02-21T09:34:50.982Z,18.90
2019-02-21T09:37:17.871Z,18.30
2019-02-21T09:39:44.669Z,17.50
2019-02-21T09:42:11.454Z,17.20
2019-02-21T09:44:38.225Z,17.50
2019-02-21T09:47:05.020Z,18.20
2019-02-21T09:49:31.810Z,19.10
2019-02-21T09:51:58.614Z,19.60
2019-02-21T09:54:25.486Z,20.30
2019-02-21T09:56:53.257Z,20.00
2019-02-21T09:59:20.173Z,20.00
2019-02-21T10:01:47.083Z,20.50
2019-02-21T10:04:13.853Z,20.50
2019-02-21T10:06:40.685Z,21.10
2019-02-21T10:09:07.673Z,22.10
2019-02-21T10:11:34.690Z,23.20
2019-02-21T10:14:01.704Z,24.10
2019-02-21T10:16:28.525Z,24.40
2019-02-21T10:18:55.303Z,24.10
2019-02-21T10:21:22.180Z,23.50
2019-02-21T10:23:48.977Z,23.80
2019-02-21T10:26:15.959Z,24.20
2019-02-21T10:28:45.037Z,24.60
2019-02-21T10:31:11.681Z,24.60
2019-02-21T10:33:46.472Z,24.40
2019-02-21T10:36:07.335Z,24.60
2019-02-21T10:38:34.208Z,24.90
2019-02-21T10:41:00.985Z,25.40
2019-02-21T10:43:27.776Z,25.40
2019-02-21T10:45:54.646Z,25.00
2019-02-21T10:48:21.531Z,25.90
2019-02-21T10:50:48.500Z,26.10
2019-02-21T10:53:15.393Z,26.00
2019-02-21T10:55:42.161Z,26.00
2019-02-21T10:58:09.069Z,26.70
2019-02-21T11:00:36.030Z,26.40
2019-02-21T11:03:03.029Z,26.90
2019-02-21T11:05:30.015Z,27.50
2019-02-21T11:07:57.002Z,27.30
2019-02-21T11:10:27.204Z,27.30
2019-02-21T11:12:54.261Z,28.30
2019-02-21T11:15:22.137Z,29.10
2019-02-21T11:17:49.154Z,29.60
2019-02-21T11:20:16.044Z,29.30
2019-02-21T11:22:42.985Z,29.50
2019-02-21T11:25:09.920Z,29.80
2019-02-21T11:27:37.486Z,30.10
2019-02-21T11:30:05.741Z,28.20
2019-02-21T11:32:32.765Z,27.60
2019-02-21T11:35:06.354Z,28.00
2019-02-21T11:37:28.230Z,28.20
2019-02-21T11:39:55.113Z,28.50
2019-02-21T11:42:21.889Z,28.80
2019-02-21T11:44:48.761Z,28.60
2019-02-21T11:47:15.729Z,27.60
2019-02-21T11:49:42.527Z,27.30
2019-02-21T11:52:10.407Z,27.00
2019-02-21T11:54:37.491Z,26.30
2019-02-21T11:57:04.483Z,25.50
2019-02-21T11:59:31.384Z,24.80
2019-02-21T12:01:58.264Z,24.90
2019-02-21T12:04:25.261Z,23.70
2019-02-21T12:06:52.024Z,24.10
2019-02-21T12:09:18.814Z,25.10
2019-02-21T12:11:45.692Z,25.30
2019-02-21T12:14:12.601Z,25.70
2019-02-21T12:16:39.377Z,25.80
2019-02-21T12:19:06.241Z,26.20
2019-02-21T12:21:33.051Z,26.60
2019-02-21T12:23:59.828Z,26.80
2019-02-21T12:26:26.607Z,25.70
2019-02-21T12:28:53.388Z,23.90
2019-02-21T12:31:20.239Z,22.60
2019-02-21T12:33:47.037Z,21.50
2019-02-21T12:36:13.937Z,20.60
2019-02-21T12:38:41.079Z,19.90
2019-02-21T12:41:08.142Z,19.90
2019-02-21T12:43:34.940Z,20.00
2019-02-21T12:46:01.856Z,19.70
2019-02-21T12:48:28.693Z,19.80
2019-02-21T12:50:55.497Z,19.70
2019-02-21T12:53:22.286Z,19.40
2019-02-21T12:55:49.088Z,19.50
2019-02-21T12:58:15.880Z,19.70
2019-02-21T13:00:42.793Z,19.80
2019-02-21T13:03:09.690Z,19.90
2019-02-21T13:05:40.876Z,20.00
2019-02-21T13:08:05.294Z,21.50
2019-02-21T13:10:34.793Z,23.50
2019-02-21T13:13:00.904Z,25.50
2019-02-21T13:15:27.685Z,26.20
2019-02-21T13:17:54.465Z,25.70
2019-02-21T13:20:21.361Z,25.40
2019-02-21T13:22:48.122Z,25.00
2019-02-21T13:25:15.121Z,25.00
2019-02-21T13:27:42.136Z,24.70
2019-02-21T13:30:11.538Z,24.80
2019-02-21T13:32:38.431Z,24.50
2019-02-21T13:35:05.930Z,23.80
2019-02-21T13:37:32.706Z,23.70
2019-02-21T13:40:00.602Z,23.40
2019-02-21T13:42:28.846Z,22.70
2019-02-21T13:44:55.949Z,22.10
2019-02-21T13:47:22.834Z,21.80
2019-02-21T13:49:49.620Z,21.20
2019-02-21T13:52:16.488Z,20.70
2019-02-21T13:54:43.463Z,19.90
2019-02-21T13:57:10.381Z,19.20
2019-02-21T13:59:40.019Z,18.60
2019-02-21T14:02:06.941Z,18.30
2019-02-21T14:04:33.841Z,17.90
2019-02-21T14:07:00.737Z,17.60
2019-02-21T14:09:27.524Z,17.20
2019-02-21T14:11:54.399Z,17.00
2019-02-21T14:14:21.284Z,16.80
2019-02-21T14:16:48.198Z,16.70
2019-02-21T14:19:15.017Z,16.70
2019-02-21T14:21:43.776Z,16.60
2019-02-21T14:24:10.725Z,16.80
2019-02-21T14:26:37.651Z,17.20
2019-02-21T14:29:04.441Z,17.70
2019-02-21T14:31:33.560Z,17.90
2019-02-21T14:34:00.149Z,17.90
2019-02-21T14:36:27.168Z,17.60
2019-02-21T14:38:53.949Z,17.30
2019-02-21T14:41:20.775Z,17.50
2019-02-21T14:43:47.561Z,18.30
2019-02-21T14:46:14.561Z,18.20
2019-02-21T14:48:41.490Z,17.20
2019-02-21T14:51:08.398Z,16.80
2019-02-21T14:53:35.278Z,16.40
2019-02-21T14:56:02.195Z,16.00
2019-02-21T14:58:29.165Z,15.80
2019-02-21T15:00:56.144Z,15.70
2019-02-21T15:03:23.076Z,15.70
2019-02-21T15:05:49.887Z,15.30
2019-02-21T15:08:22.075Z,15.10
2019-02-21T15:10:49.209Z,14.90
2019-02-21T15:13:16.118Z,14.50
2019-02-21T15:15:43.132Z,14.30
2019-02-21T15:18:11.274Z,14.20
2019-02-21T15:20:38.483Z,14.00
2019-02-21T15:23:05.294Z,14.00
2019-02-21T15:25:32.316Z,13.90
2019-02-21T15:27:59.326Z,13.90
2019-02-21T15:30:26.353Z,13.90
2019-02-21T15:32:53.279Z,13.90
2019-02-21T15:35:20.259Z,14.00
2019-02-21T15:37:47.243Z,14.20
2019-02-21T15:40:14.233Z,14.70
2019-02-21T15:42:41.134Z,15.00
2019-02-21T15:45:10.258Z,14.90
2019-02-21T15:47:37.157Z,14.80
2019-02-21T15:50:05.488Z,14.60
2019-02-21T15:52:32.531Z,14.30
2019-02-21T15:55:09.026Z,14.20
2019-02-21T15:57:28.021Z,14.00
2019-02-21T15:59:54.878Z,13.90
2019-02-21T16:02:21.806Z,13.70
2019-02-21T16:04:48.706Z,13.70
2019-02-21T16:07:25.070Z,13.70
2019-02-21T16:09:51.995Z,13.80
2019-02-21T16:12:18.820Z,14.20
2019-02-21T16:14:45.629Z,14.30
2019-02-21T16:17:12.586Z,14.50
2019-02-21T16:19:39.482Z,14.60
2019-02-21T16:22:06.395Z,14.20
2019-02-21T16:24:33.282Z,13.80
2019-02-21T16:27:00.323Z,13.40
2019-02-21T16:29:27.166Z,13.10
2019-02-21T16:31:54.137Z,12.80
2019-02-21T16:34:21.145Z,12.50
2019-02-21T16:36:48.050Z,12.30
2019-02-21T16:39:15.045Z,12.00
2019-02-21T16:41:44.263Z,11.80
2019-02-21T16:44:10.734Z,11.60
2019-02-21T16:46:37.742Z,11.40
2019-02-21T16:49:04.768Z,11.30
2019-02-21T16:51:31.582Z,11.10
2019-02-21T16:53:58.475Z,10.90
2019-02-21T16:56:26.638Z,10.70
2019-02-21T16:58:53.757Z,10.70
2019-02-21T17:01:20.650Z,10.70
2019-02-21T17:03:47.560Z,10.50
2019-02-21T17:06:14.361Z,10.40
2019-02-21T17:08:41.225Z,10.30
2019-02-21T17:11:08.121Z,10.10
2019-02-21T17:13:34.933Z,9.90
2019-02-21T17:16:01.824Z,9.80
2019-02-21T17:18:28.609Z,9.70
2019-02-21T17:20:55.394Z,9.60
2019-02-21T17:23:23.078Z,9.50
2019-02-21T17:25:50.279Z,9.30
2019-02-21T17:28:17.162Z,9.10
2019-02-21T17:30:44.156Z,9.00
2019-02-21T17:33:11.180Z,8.80
2019-02-21T17:35:38.190Z,8.70
2019-02-21T17:38:05.195Z,8.60
2019-02-21T17:40:32.134Z,8.60
2019-02-21T17:42:59.022Z,8.60
2019-02-21T17:45:25.993Z,8.50
2019-02-21T17:47:52.947Z,8.50
2019-02-21T17:50:20.075Z,8.50
2019-02-21T17:52:47.086Z,8.50
2019-02-21T17:55:14.363Z,8.50
2019-02-21T17:57:41.500Z,8.50
2019-02-21T18:00:16.891Z,8.50
2019-02-21T18:02:42.932Z,8.50
2019-02-21T18:05:09.987Z,8.50
2019-02-21T18:07:36.974Z,8.40
2019-02-21T18:10:05.583Z,8.30
2019-02-21T18:12:32.423Z,8.20
2019-02-21T18:14:59.254Z,8.20
2019-02-21T18:17:26.594Z,8.10
2019-02-21T18:19:53.570Z,8.10
2019-02-21T18:22:20.464Z,8.10
2019-02-21T18:24:47.411Z,8.10
2019-02-21T18:27:14.224Z,8.10
2019-02-21T18:29:43.592Z,8.20
2019-02-21T18:32:10.097Z,8.20
2019-02-21T18:34:36.993Z,8.10
2019-02-21T18:37:04.089Z,8.10
2019-02-21T18:39:31.113Z,8.20
2019-02-21T18:41:58.013Z,8.10
2019-02-21T18:44:25.255Z,8.10
2019-02-21T18:46:55.181Z,8.00
2019-02-21T18:49:21.874Z,7.90
2019-02-21T18:51:49.287Z,7.90
2019-02-21T18:54:16.667Z,7.90
2019-02-21T18:56:43.620Z,7.80
2019-02-21T18:59:10.621Z,7.80
2019-02-21T19:01:37.636Z,7.80
2019-02-21T19:04:04.634Z,7.80
2019-02-21T19:06:31.435Z,7.80
2019-02-21T19:08:58.340Z,7.80
2019-02-21T19:11:25.396Z,7.90
2019-02-21T19:13:52.322Z,7.90
2019-02-21T19:16:19.322Z,7.90
2019-02-21T19:18:46.105Z,7.90
2019-02-21T19:21:13.142Z,7.90
2019-02-21T19:23:40.015Z,7.90
2019-02-21T19:26:06.918Z,8.00
2019-02-21T19:28:33.798Z,8.00
2019-02-21T19:31:05.165Z,7.90
2019-02-21T19:33:32.160Z,7.90
2019-02-21T19:35:59.257Z,7.90
2019-02-21T19:38:26.133Z,7.90
2019-02-21T19:40:53.129Z,7.80
2019-02-21T19:43:20.015Z,7.70
2019-02-21T19:45:46.994Z,7.70
2019-02-21T19:48:13.837Z,7.70
2019-02-21T19:50:41.037Z,7.60
2019-02-21T19:53:08.050Z,7.60
2019-02-21T19:55:35.228Z,7.60
2019-02-21T19:58:02.244Z,7.60
2019-02-21T20:00:30.272Z,7.60
2019-02-21T20:02:57.178Z,7.50
2019-02-21T20:05:24.358Z,7.50
2019-02-21T20:07:51.360Z,7.40
2019-02-21T20:10:18.424Z,7.40
2019-02-21T20:12:45.531Z,7.30
2019-02-21T20:15:12.636Z,7.20
2019-02-21T20:17:39.649Z,7.20
2019-02-21T20:20:08.050Z,7.20
2019-02-21T20:22:35.060Z,7.20
2019-02-21T20:25:02.069Z,7.20
2019-02-21T20:27:29.103Z,7.20
2019-02-21T20:29:56.110Z,7.20
2019-02-21T20:32:23.133Z,7.20
2019-02-21T20:34:50.026Z,7.20
2019-02-21T20:37:16.940Z,7.10
2019-02-21T20:39:43.955Z,7.10
2019-02-21T20:42:10.761Z,7.00
2019-02-21T20:44:37.742Z,6.90
2019-02-21T20:47:04.743Z,6.90
2019-02-21T20:49:31.533Z,6.90
2019-02-21T20:51:58.449Z,6.90
2019-02-21T20:54:25.333Z,7.00
2019-02-21T20:56:52.265Z,7.00
2019-02-21T20:59:19.468Z,7.10
2019-02-21T21:01:46.429Z,7.20
2019-02-21T21:04:13.347Z,7.20
2019-02-21T21:06:40.140Z,7.30
2019-02-21T21:09:07.338Z,7.20
2019-02-21T21:11:34.148Z,7.20
2019-02-21T21:14:01.056Z,7.20
2019-02-21T21:16:27.853Z,7.10
2019-02-21T21:18:54.669Z,7.10
2019-02-21T21:21:21.562Z,7.10
2019-02-21T21:23:48.360Z,7.10
2019-02-21T21:26:15.261Z,7.00
2019-02-21T21:28:42.048Z,7.00
2019-02-21T21:31:08.957Z,7.00
2019-02-21T21:33:35.997Z,7.10
2019-02-21T21:36:02.989Z,7.10
2019-02-21T21:38:29.905Z,7.10
2019-02-21T21:40:56.709Z,7.20
2019-02-21T21:43:23.588Z,7.20
2019-02-21T21:45:50.474Z,7.20
2019-02-21T21:48:17.362Z,7.30
2019-02-21T21:50:44.257Z,7.30
2019-02-21T21:53:11.162Z,7.40
2019-02-21T21:55:38.061Z,7.40
2019-02-21T21:58:04.881Z,7.40
2019-02-21T22:00:31.769Z,7.50
2019-02-21T22:02:58.689Z,7.50
2019-02-21T22:05:25.573Z,7.60
2019-02-21T22:07:52.489Z,7.60
2019-02-21T22:10:19.382Z,7.60
2019-02-21T22:12:46.388Z,7.70
2019-02-21T22:15:13.547Z,7.70
2019-02-21T22:17:42.196Z,7.70
2019-02-21T22:20:09.527Z,7.70
2019-02-21T22:22:37.105Z,7.70
2019-02-21T22:25:04.452Z,7.70
2019-02-21T22:27:31.273Z,7.80
2019-02-21T22:29:58.263Z,7.80
2019-02-21T22:32:25.031Z,7.80
2019-02-21T22:34:52.028Z,7.80
2019-02-21T22:37:18.876Z,7.80
2019-02-21T22:39:45.704Z,7.70
2019-02-21T22:42:12.619Z,7.70
2019-02-21T22:44:39.486Z,7.70
2019-02-21T22:47:06.378Z,7.70
2019-02-21T22:49:33.270Z,7.70
2019-02-21T22:52:00.051Z,7.60
2019-02-21T22:54:26.941Z,7.60
2019-02-21T22:56:53.825Z,7.60
2019-02-21T22:59:20.734Z,7.50
2019-02-21T23:01:47.970Z,7.60
2019-02-21T23:04:44.253Z,7.60
2019-02-21T23:07:22.431Z,7.60
2019-02-21T23:09:49.314Z,7.60
2019-02-21T23:12:16.113Z,7.60
2019-02-21T23:14:43.018Z,7.60
2019-02-21T23:17:09.997Z,7.70
2019-02-21T23:19:36.992Z,7.70
2019-02-21T23:22:03.989Z,7.70
2019-02-21T23:24:31.062Z,7.70
2019-02-21T23:26:57.935Z,7.80
2019-02-21T23:29:24.921Z,7.80
2019-02-21T23:31:51.799Z,7.80
2019-02-21T23:34:47.160Z,7.80
2019-02-21T23:37:14.142Z,7.80
2019-02-21T23:39:41.244Z,7.80
2019-02-21T23:42:08.159Z,7.80
2019-02-21T23:44:35.053Z,7.80
2019-02-21T23:47:02.053Z,7.80
2019-02-21T23:49:28.841Z,7.70
2019-02-21T23:51:55.725Z,7.70
2019-02-21T23:54:22.537Z,7.70
2019-02-21T23:56:49.449Z,7.60
2019-02-21T23:59:16.347Z,7.60
